Terminal Aerodrome Forecast
Issued by NWS

Home | Current Version | Previous Version | Text Only | Print | Product List | Glossary On
Versions: 1 2 3 4 5 6 7 8 9 10 11 12
369
FTUS45 KRIW 210529
TAFBPI
TAF
KBPI 210529Z 2106/2206 35011KT P6SM -SN SCT025 OVC040
      TEMPO 2106/2108 3SM -SN BKN025
     FM210900 34010KT P6SM SCT025 BKN040
     FM211300 33008KT P6SM SCT040 BKN070
     FM212100 34010KT P6SM SCT080=

USA.gov is the U.S. government's official web portal to all federal, state and local government web resources and services.